sensor_id;sensor_type;location;lat;lon;timestamp;P1;durP1;ratioP1;P2;durP2;ratioP2
17606;SDS011;69222;52.242;20.980;2023-12-20T00:01:19;17.53;;;13.17;;
17606;SDS011;69222;52.242;20.980;2023-12-20T00:03:47;16.53;;;12.63;;
17606;SDS011;69222;52.242;20.980;2023-12-20T00:06:15;16.83;;;12.37;;
17606;SDS011;69222;52.242;20.980;2023-12-20T00:08:43;16.43;;;13.30;;
17606;SDS011;69222;52.242;20.980;2023-12-20T00:11:11;14.70;;;12.40;;
17606;SDS011;69222;52.242;20.980;2023-12-20T00:13:39;14.53;;;12.13;;
17606;SDS011;69222;52.242;20.980;2023-12-20T00:16:09;15.00;;;12.80;;
17606;SDS011;69222;52.242;20.980;2023-12-20T00:18:37;16.80;;;11.43;;
17606;SDS011;69222;52.242;20.980;2023-12-20T00:21:05;17.67;;;12.07;;
17606;SDS011;69222;52.242;20.980;2023-12-20T00:23:33;14.17;;;11.93;;
17606;SDS011;69222;52.242;20.980;2023-12-20T00:26:01;14.53;;;11.47;;
17606;SDS011;69222;52.242;20.980;2023-12-20T00:28:29;16.10;;;12.53;;
17606;SDS011;69222;52.242;20.980;2023-12-20T00:30:57;14.43;;;12.17;;
17606;SDS011;69222;52.242;20.980;2023-12-20T00:33:26;16.40;;;12.10;;
17606;SDS011;69222;52.242;20.980;2023-12-20T00:35:54;14.37;;;11.97;;
17606;SDS011;69222;52.242;20.980;2023-12-20T00:38:22;14.60;;;12.53;;
17606;SDS011;69222;52.242;20.980;2023-12-20T00:40:50;16.27;;;11.57;;
17606;SDS011;69222;52.242;20.980;2023-12-20T00:43:18;15.30;;;13.17;;
17606;SDS011;69222;52.242;20.980;2023-12-20T00:45:46;15.57;;;11.80;;
17606;SDS011;69222;52.242;20.980;2023-12-20T00:48:14;16.30;;;12.53;;
17606;SDS011;69222;52.242;20.980;2023-12-20T00:50:43;15.87;;;12.07;;
17606;SDS011;69222;52.242;20.980;2023-12-20T00:53:11;14.47;;;11.60;;
17606;SDS011;69222;52.242;20.980;2023-12-20T00:55:39;14.00;;;11.07;;
17606;SDS011;69222;52.242;20.980;2023-12-20T00:58:07;14.43;;;10.60;;
17606;SDS011;69222;52.242;20.980;2023-12-20T01:00:35;14.83;;;11.47;;
17606;SDS011;69222;52.242;20.980;2023-12-20T01:03:05;13.30;;;11.03;;
17606;SDS011;69222;52.242;20.980;2023-12-20T01:05:32;13.77;;;11.33;;
17606;SDS011;69222;52.242;20.980;2023-12-20T01:08:01;13.93;;;11.37;;
17606;SDS011;69222;52.242;20.980;2023-12-20T01:10:29;13.93;;;11.23;;
17606;SDS011;69222;52.242;20.980;2023-12-20T01:12:57;15.27;;;10.87;;
17606;SDS011;69222;52.242;20.980;2023-12-20T01:15:25;13.87;;;10.50;;
17606;SDS011;69222;52.242;20.980;2023-12-20T01:17:53;13.47;;;9.97;;
17606;SDS011;69222;52.242;20.980;2023-12-20T01:20:23;13.27;;;11.10;;
17606;SDS011;69222;52.242;20.980;2023-12-20T01:22:51;12.03;;;10.30;;
17606;SDS011;69222;52.242;20.980;2023-12-20T01:25:20;13.27;;;11.17;;
17606;SDS011;69222;52.242;20.980;2023-12-20T01:27:48;14.90;;;10.57;;
17606;SDS011;69222;52.242;20.980;2023-12-20T01:30:16;15.20;;;11.70;;
17606;SDS011;69222;52.242;20.980;2023-12-20T01:32:44;12.60;;;10.63;;
17606;SDS011;69222;52.242;20.980;2023-12-20T01:35:12;12.00;;;9.77;;
17606;SDS011;69222;52.242;20.980;2023-12-20T01:37:41;13.33;;;10.27;;
17606;SDS011;69222;52.242;20.980;2023-12-20T01:40:09;13.60;;;10.30;;
17606;SDS011;69222;52.242;20.980;2023-12-20T01:42:39;12.50;;;10.23;;
17606;SDS011;69222;52.242;20.980;2023-12-20T01:45:08;11.57;;;10.37;;
17606;SDS011;69222;52.242;20.980;2023-12-20T01:47:36;12.10;;;10.17;;
17606;SDS011;69222;52.242;20.980;2023-12-20T01:50:05;12.43;;;9.63;;
17606;SDS011;69222;52.242;20.980;2023-12-20T01:52:35;13.10;;;9.40;;
17606;SDS011;69222;52.242;20.980;2023-12-20T01:55:03;12.90;;;9.17;;
17606;SDS011;69222;52.242;20.980;2023-12-20T01:57:41;9.83;;;7.73;;
17606;SDS011;69222;52.242;20.980;2023-12-20T02:00:11;13.73;;;9.60;;
17606;SDS011;69222;52.242;20.980;2023-12-20T02:02:40;11.27;;;8.87;;
17606;SDS011;69222;52.242;20.980;2023-12-20T02:05:09;11.27;;;8.83;;
17606;SDS011;69222;52.242;20.980;2023-12-20T02:07:37;10.03;;;7.70;;
17606;SDS011;69222;52.242;20.980;2023-12-20T02:10:05;9.70;;;7.90;;
17606;SDS011;69222;52.242;20.980;2023-12-20T02:12:36;8.90;;;7.10;;
17606;SDS011;69222;52.242;20.980;2023-12-20T02:15:05;8.47;;;7.03;;
17606;SDS011;69222;52.242;20.980;2023-12-20T02:17:36;10.07;;;7.43;;
17606;SDS011;69222;52.242;20.980;2023-12-20T02:20:06;9.80;;;6.83;;
17606;SDS011;69222;52.242;20.980;2023-12-20T02:22:36;8.77;;;7.13;;
17606;SDS011;69222;52.242;20.980;2023-12-20T02:25:04;7.97;;;6.70;;
17606;SDS011;69222;52.242;20.980;2023-12-20T02:27:32;8.40;;;6.57;;
17606;SDS011;69222;52.242;20.980;2023-12-20T02:30:01;7.37;;;6.37;;
17606;SDS011;69222;52.242;20.980;2023-12-20T02:32:30;9.03;;;6.43;;
17606;SDS011;69222;52.242;20.980;2023-12-20T02:34:58;7.60;;;6.13;;
17606;SDS011;69222;52.242;20.980;2023-12-20T02:37:26;6.57;;;5.83;;
17606;SDS011;69222;52.242;20.980;2023-12-20T02:39:55;6.40;;;5.70;;
17606;SDS011;69222;52.242;20.980;2023-12-20T02:42:23;6.13;;;4.63;;
17606;SDS011;69222;52.242;20.980;2023-12-20T02:44:51;6.90;;;5.03;;
17606;SDS011;69222;52.242;20.980;2023-12-20T02:47:19;5.00;;;4.23;;
17606;SDS011;69222;52.242;20.980;2023-12-20T02:49:47;5.53;;;4.07;;
17606;SDS011;69222;52.242;20.980;2023-12-20T02:52:15;4.17;;;3.30;;
17606;SDS011;69222;52.242;20.980;2023-12-20T02:54:43;3.67;;;3.23;;
17606;SDS011;69222;52.242;20.980;2023-12-20T02:57:13;4.33;;;3.00;;
17606;SDS011;69222;52.242;20.980;2023-12-20T02:59:40;3.10;;;2.80;;
17606;SDS011;69222;52.242;20.980;2023-12-20T03:02:08;3.57;;;3.07;;
17606;SDS011;69222;52.242;20.980;2023-12-20T03:04:36;3.70;;;3.30;;
17606;SDS011;69222;52.242;20.980;2023-12-20T03:07:05;3.60;;;3.20;;
17606;SDS011;69222;52.242;20.980;2023-12-20T03:09:32;4.13;;;3.50;;
17606;SDS011;69222;52.242;20.980;2023-12-20T03:12:21;5.17;;;3.27;;
17606;SDS011;69222;52.242;20.980;2023-12-20T03:14:49;4.37;;;3.50;;
17606;SDS011;69222;52.242;20.980;2023-12-20T03:17:17;4.30;;;3.37;;
17606;SDS011;69222;52.242;20.980;2023-12-20T03:19:46;3.20;;;2.90;;
17606;SDS011;69222;52.242;20.980;2023-12-20T03:22:14;4.13;;;3.53;;
17606;SDS011;69222;52.242;20.980;2023-12-20T03:24:42;4.13;;;3.50;;
17606;SDS011;69222;52.242;20.980;2023-12-20T03:27:09;4.87;;;3.60;;
17606;SDS011;69222;52.242;20.980;2023-12-20T03:29:39;5.00;;;3.70;;
17606;SDS011;69222;52.242;20.980;2023-12-20T03:32:06;3.63;;;3.27;;
17606;SDS011;69222;52.242;20.980;2023-12-20T03:34:35;4.13;;;3.13;;
17606;SDS011;69222;52.242;20.980;2023-12-20T03:37:03;4.13;;;3.33;;
17606;SDS011;69222;52.242;20.980;2023-12-20T03:39:31;4.53;;;3.63;;
17606;SDS011;69222;52.242;20.980;2023-12-20T03:41:59;3.90;;;3.50;;
17606;SDS011;69222;52.242;20.980;2023-12-20T03:44:27;4.27;;;3.37;;
17606;SDS011;69222;52.242;20.980;2023-12-20T03:46:56;3.60;;;3.30;;
17606;SDS011;69222;52.242;20.980;2023-12-20T03:49:24;3.77;;;3.33;;
17606;SDS011;69222;52.242;20.980;2023-12-20T03:51:52;3.80;;;3.27;;
17606;SDS011;69222;52.242;20.980;2023-12-20T03:54:20;3.77;;;3.37;;
17606;SDS011;69222;52.242;20.980;2023-12-20T03:56:48;4.87;;;4.10;;
17606;SDS011;69222;52.242;20.980;2023-12-20T03:59:17;4.67;;;3.67;;
17606;SDS011;69222;52.242;20.980;2023-12-20T04:01:45;4.50;;;3.70;;
17606;SDS011;69222;52.242;20.980;2023-12-20T04:04:14;4.90;;;3.97;;
17606;SDS011;69222;52.242;20.980;2023-12-20T04:06:42;4.63;;;4.00;;
17606;SDS011;69222;52.242;20.980;2023-12-20T04:09:10;4.23;;;3.83;;
17606;SDS011;69222;52.242;20.980;2023-12-20T04:11:38;6.00;;;4.40;;
17606;SDS011;69222;52.242;20.980;2023-12-20T04:14:06;4.17;;;3.70;;
17606;SDS011;69222;52.242;20.980;2023-12-20T04:16:34;4.73;;;3.97;;
17606;SDS011;69222;52.242;20.980;2023-12-20T04:19:02;3.90;;;3.50;;
17606;SDS011;69222;52.242;20.980;2023-12-20T04:21:32;4.43;;;4.03;;
17606;SDS011;69222;52.242;20.980;2023-12-20T04:24:00;5.57;;;4.90;;
17606;SDS011;69222;52.242;20.980;2023-12-20T04:26:28;6.53;;;4.90;;
17606;SDS011;69222;52.242;20.980;2023-12-20T04:28:56;5.50;;;4.80;;
17606;SDS011;69222;52.242;20.980;2023-12-20T04:31:23;5.67;;;5.10;;
17606;SDS011;69222;52.242;20.980;2023-12-20T04:33:51;6.13;;;5.53;;
17606;SDS011;69222;52.242;20.980;2023-12-20T04:36:19;6.80;;;5.43;;
17606;SDS011;69222;52.242;20.980;2023-12-20T04:38:49;7.23;;;5.73;;
17606;SDS011;69222;52.242;20.980;2023-12-20T04:41:17;7.20;;;5.77;;
17606;SDS011;69222;52.242;20.980;2023-12-20T04:43:45;6.33;;;5.73;;
17606;SDS011;69222;52.242;20.980;2023-12-20T04:46:13;7.13;;;5.90;;
17606;SDS011;69222;52.242;20.980;2023-12-20T04:48:41;8.83;;;6.53;;
17606;SDS011;69222;52.242;20.980;2023-12-20T04:51:09;7.97;;;6.07;;
17606;SDS011;69222;52.242;20.980;2023-12-20T04:53:37;7.67;;;6.07;;
17606;SDS011;69222;52.242;20.980;2023-12-20T04:56:06;6.87;;;6.17;;
17606;SDS011;69222;52.242;20.980;2023-12-20T04:58:34;7.93;;;7.13;;
17606;SDS011;69222;52.242;20.980;2023-12-20T05:01:02;7.13;;;6.40;;
17606;SDS011;69222;52.242;20.980;2023-12-20T05:03:31;6.83;;;6.10;;
17606;SDS011;69222;52.242;20.980;2023-12-20T05:05:59;7.43;;;6.63;;
17606;SDS011;69222;52.242;20.980;2023-12-20T05:08:27;9.10;;;6.37;;
17606;SDS011;69222;52.242;20.980;2023-12-20T05:10:55;8.27;;;7.03;;
17606;SDS011;69222;52.242;20.980;2023-12-20T05:13:24;7.53;;;6.00;;
17606;SDS011;69222;52.242;20.980;2023-12-20T05:16:07;10.17;;;7.37;;
17606;SDS011;69222;52.242;20.980;2023-12-20T05:18:35;7.77;;;6.60;;
17606;SDS011;69222;52.242;20.980;2023-12-20T05:21:03;7.67;;;6.83;;
17606;SDS011;69222;52.242;20.980;2023-12-20T05:23:31;8.80;;;7.43;;
17606;SDS011;69222;52.242;20.980;2023-12-20T05:25:59;8.37;;;7.30;;
17606;SDS011;69222;52.242;20.980;2023-12-20T05:28:28;9.30;;;7.80;;
17606;SDS011;69222;52.242;20.980;2023-12-20T05:30:56;9.40;;;7.20;;
17606;SDS011;69222;52.242;20.980;2023-12-20T05:33:25;8.33;;;7.27;;
17606;SDS011;69222;52.242;20.980;2023-12-20T05:35:53;8.23;;;6.97;;
17606;SDS011;69222;52.242;20.980;2023-12-20T05:38:21;9.03;;;7.67;;
17606;SDS011;69222;52.242;20.980;2023-12-20T05:40:49;9.77;;;8.03;;
17606;SDS011;69222;52.242;20.980;2023-12-20T05:43:17;10.20;;;8.10;;
17606;SDS011;69222;52.242;20.980;2023-12-20T05:45:46;9.40;;;8.33;;
17606;SDS011;69222;52.242;20.980;2023-12-20T05:48:14;8.73;;;7.83;;
17606;SDS011;69222;52.242;20.980;2023-12-20T05:50:42;8.90;;;7.87;;
17606;SDS011;69222;52.242;20.980;2023-12-20T05:53:10;9.63;;;7.53;;
17606;SDS011;69222;52.242;20.980;2023-12-20T05:55:40;11.13;;;7.20;;
17606;SDS011;69222;52.242;20.980;2023-12-20T05:58:14;9.40;;;8.10;;
17606;SDS011;69222;52.242;20.980;2023-12-20T06:00:42;9.87;;;8.13;;
17606;SDS011;69222;52.242;20.980;2023-12-20T06:03:12;8.23;;;7.03;;
17606;SDS011;69222;52.242;20.980;2023-12-20T06:05:40;8.87;;;7.53;;
17606;SDS011;69222;52.242;20.980;2023-12-20T06:08:08;7.80;;;7.00;;
17606;SDS011;69222;52.242;20.980;2023-12-20T06:10:36;8.07;;;7.03;;
17606;SDS011;69222;52.242;20.980;2023-12-20T06:13:04;8.20;;;6.73;;
17606;SDS011;69222;52.242;20.980;2023-12-20T06:15:33;8.57;;;7.33;;
17606;SDS011;69222;52.242;20.980;2023-12-20T06:18:01;9.93;;;8.27;;
17606;SDS011;69222;52.242;20.980;2023-12-20T06:20:31;8.47;;;7.20;;
17606;SDS011;69222;52.242;20.980;2023-12-20T06:22:59;9.30;;;7.93;;
17606;SDS011;69222;52.242;20.980;2023-12-20T06:25:27;8.17;;;7.33;;
17606;SDS011;69222;52.242;20.980;2023-12-20T06:27:55;9.47;;;6.83;;
17606;SDS011;69222;52.242;20.980;2023-12-20T06:30:23;11.43;;;7.50;;
17606;SDS011;69222;52.242;20.980;2023-12-20T06:32:52;8.93;;;6.87;;
17606;SDS011;69222;52.242;20.980;2023-12-20T06:35:19;8.43;;;7.40;;
17606;SDS011;69222;52.242;20.980;2023-12-20T06:37:49;7.70;;;6.30;;
17606;SDS011;69222;52.242;20.980;2023-12-20T06:40:17;10.03;;;7.20;;
17606;SDS011;69222;52.242;20.980;2023-12-20T06:42:45;8.40;;;7.10;;
17606;SDS011;69222;52.242;20.980;2023-12-20T06:45:30;7.07;;;6.27;;
17606;SDS011;69222;52.242;20.980;2023-12-20T06:47:58;8.33;;;6.83;;
17606;SDS011;69222;52.242;20.980;2023-12-20T06:50:26;7.63;;;6.43;;
17606;SDS011;69222;52.242;20.980;2023-12-20T06:52:56;8.10;;;7.30;;
17606;SDS011;69222;52.242;20.980;2023-12-20T06:55:24;10.90;;;6.63;;
17606;SDS011;69222;52.242;20.980;2023-12-20T06:57:52;8.60;;;7.13;;
17606;SDS011;69222;52.242;20.980;2023-12-20T07:00:20;8.27;;;7.27;;
17606;SDS011;69222;52.242;20.980;2023-12-20T07:02:48;9.67;;;7.80;;
17606;SDS011;69222;52.242;20.980;2023-12-20T07:05:16;8.43;;;7.33;;
17606;SDS011;69222;52.242;20.980;2023-12-20T07:07:46;8.37;;;7.07;;
17606;SDS011;69222;52.242;20.980;2023-12-20T07:10:16;9.83;;;7.83;;
17606;SDS011;69222;52.242;20.980;2023-12-20T07:12:44;8.27;;;6.63;;
17606;SDS011;69222;52.242;20.980;2023-12-20T07:15:12;8.23;;;7.13;;
17606;SDS011;69222;52.242;20.980;2023-12-20T07:17:40;9.73;;;7.07;;
17606;SDS011;69222;52.242;20.980;2023-12-20T07:20:09;8.23;;;6.87;;
17606;SDS011;69222;52.242;20.980;2023-12-20T07:22:38;9.27;;;7.77;;
17606;SDS011;69222;52.242;20.980;2023-12-20T07:25:07;9.53;;;7.43;;
17606;SDS011;69222;52.242;20.980;2023-12-20T07:27:36;8.30;;;7.37;;
17606;SDS011;69222;52.242;20.980;2023-12-20T07:30:07;8.70;;;7.43;;
17606;SDS011;69222;52.242;20.980;2023-12-20T07:32:36;9.20;;;7.63;;
17606;SDS011;69222;52.242;20.980;2023-12-20T07:35:04;8.70;;;7.80;;
17606;SDS011;69222;52.242;20.980;2023-12-20T07:37:33;8.20;;;7.10;;
17606;SDS011;69222;52.242;20.980;2023-12-20T07:40:01;8.43;;;6.80;;
17606;SDS011;69222;52.242;20.980;2023-12-20T07:42:32;7.87;;;6.70;;
17606;SDS011;69222;52.242;20.980;2023-12-20T07:45:01;11.47;;;7.57;;
17606;SDS011;69222;52.242;20.980;2023-12-20T07:47:32;10.63;;;7.13;;
17606;SDS011;69222;52.242;20.980;2023-12-20T07:50:00;7.87;;;6.57;;
17606;SDS011;69222;52.242;20.980;2023-12-20T07:52:29;7.33;;;6.53;;
17606;SDS011;69222;52.242;20.980;2023-12-20T07:54:57;7.13;;;6.13;;
17606;SDS011;69222;52.242;20.980;2023-12-20T07:57:28;8.27;;;6.70;;
17606;SDS011;69222;52.242;20.980;2023-12-20T07:59:56;7.63;;;6.10;;
17606;SDS011;69222;52.242;20.980;2023-12-20T08:02:25;8.87;;;7.00;;
17606;SDS011;69222;52.242;20.980;2023-12-20T08:04:53;7.97;;;6.87;;
17606;SDS011;69222;52.242;20.980;2023-12-20T08:07:21;7.60;;;6.70;;
17606;SDS011;69222;52.242;20.980;2023-12-20T08:09:50;8.70;;;6.70;;
17606;SDS011;69222;52.242;20.980;2023-12-20T08:12:19;8.67;;;6.37;;
17606;SDS011;69222;52.242;20.980;2023-12-20T08:14:47;8.10;;;6.73;;
17606;SDS011;69222;52.242;20.980;2023-12-20T08:17:15;8.10;;;6.50;;
17606;SDS011;69222;52.242;20.980;2023-12-20T08:19:46;7.03;;;5.83;;
17606;SDS011;69222;52.242;20.980;2023-12-20T08:22:14;7.63;;;6.73;;
17606;SDS011;69222;52.242;20.980;2023-12-20T08:24:42;8.27;;;6.20;;
17606;SDS011;69222;52.242;20.980;2023-12-20T08:27:10;6.90;;;6.20;;
17606;SDS011;69222;52.242;20.980;2023-12-20T08:29:38;8.47;;;5.93;;
17606;SDS011;69222;52.242;20.980;2023-12-20T08:32:06;7.70;;;6.20;;
17606;SDS011;69222;52.242;20.980;2023-12-20T08:34:34;8.43;;;5.70;;
17606;SDS011;69222;52.242;20.980;2023-12-20T08:37:04;6.70;;;6.00;;
17606;SDS011;69222;52.242;20.980;2023-12-20T08:39:32;8.60;;;6.00;;
17606;SDS011;69222;52.242;20.980;2023-12-20T08:42:01;8.33;;;5.50;;
17606;SDS011;69222;52.242;20.980;2023-12-20T08:44:29;6.93;;;6.10;;
17606;SDS011;69222;52.242;20.980;2023-12-20T08:46:56;7.03;;;6.03;;
17606;SDS011;69222;52.242;20.980;2023-12-20T08:49:24;5.90;;;5.30;;
17606;SDS011;69222;52.242;20.980;2023-12-20T08:51:53;5.43;;;4.80;;
17606;SDS011;69222;52.242;20.980;2023-12-20T08:54:22;10.20;;;6.40;;
17606;SDS011;69222;52.242;20.980;2023-12-20T08:56:51;7.20;;;5.50;;
17606;SDS011;69222;52.242;20.980;2023-12-20T08:59:18;7.83;;;6.03;;
17606;SDS011;69222;52.242;20.980;2023-12-20T09:01:46;6.97;;;6.00;;
17606;SDS011;69222;52.242;20.980;2023-12-20T09:04:15;6.27;;;5.13;;
17606;SDS011;69222;52.242;20.980;2023-12-20T09:06:43;8.40;;;6.20;;
17606;SDS011;69222;52.242;20.980;2023-12-20T09:09:11;7.67;;;6.03;;
17606;SDS011;69222;52.242;20.980;2023-12-20T09:11:41;6.73;;;5.70;;
17606;SDS011;69222;52.242;20.980;2023-12-20T09:14:12;5.87;;;5.20;;
17606;SDS011;69222;52.242;20.980;2023-12-20T09:16:40;7.27;;;6.20;;
17606;SDS011;69222;52.242;20.980;2023-12-20T09:19:08;7.33;;;5.20;;
17606;SDS011;69222;52.242;20.980;2023-12-20T09:21:36;6.63;;;5.53;;
17606;SDS011;69222;52.242;20.980;2023-12-20T09:24:05;6.90;;;5.37;;
17606;SDS011;69222;52.242;20.980;2023-12-20T09:26:33;7.63;;;5.87;;
17606;SDS011;69222;52.242;20.980;2023-12-20T09:29:07;8.03;;;5.90;;
17606;SDS011;69222;52.242;20.980;2023-12-20T09:31:37;7.47;;;5.83;;
17606;SDS011;69222;52.242;20.980;2023-12-20T09:34:05;6.90;;;5.67;;
17606;SDS011;69222;52.242;20.980;2023-12-20T09:36:33;7.43;;;5.77;;
17606;SDS011;69222;52.242;20.980;2023-12-20T09:39:02;7.20;;;5.20;;
17606;SDS011;69222;52.242;20.980;2023-12-20T09:41:31;5.90;;;5.03;;
17606;SDS011;69222;52.242;20.980;2023-12-20T09:44:05;5.97;;;5.37;;
17606;SDS011;69222;52.242;20.980;2023-12-20T09:46:34;6.63;;;5.67;;
17606;SDS011;69222;52.242;20.980;2023-12-20T09:49:05;6.13;;;5.17;;
17606;SDS011;69222;52.242;20.980;2023-12-20T09:51:34;6.20;;;5.40;;
17606;SDS011;69222;52.242;20.980;2023-12-20T09:54:03;6.67;;;5.23;;
17606;SDS011;69222;52.242;20.980;2023-12-20T09:56:31;7.30;;;5.50;;
17606;SDS011;69222;52.242;20.980;2023-12-20T09:58:59;6.97;;;4.90;;
17606;SDS011;69222;52.242;20.980;2023-12-20T10:01:27;6.77;;;5.37;;
17606;SDS011;69222;52.242;20.980;2023-12-20T10:03:58;5.50;;;5.00;;
17606;SDS011;69222;52.242;20.980;2023-12-20T10:06:27;5.57;;;4.90;;
17606;SDS011;69222;52.242;20.980;2023-12-20T10:08:55;6.77;;;4.87;;
17606;SDS011;69222;52.242;20.980;2023-12-20T10:11:23;8.23;;;4.80;;
17606;SDS011;69222;52.242;20.980;2023-12-20T10:13:50;5.60;;;5.00;;
17606;SDS011;69222;52.242;20.980;2023-12-20T10:16:18;6.43;;;5.43;;
17606;SDS011;69222;52.242;20.980;2023-12-20T10:18:52;6.87;;;5.43;;
17606;SDS011;69222;52.242;20.980;2023-12-20T10:21:22;6.80;;;5.30;;
17606;SDS011;69222;52.242;20.980;2023-12-20T10:23:53;6.17;;;5.57;;
17606;SDS011;69222;52.242;20.980;2023-12-20T10:26:22;5.73;;;5.23;;
17606;SDS011;69222;52.242;20.980;2023-12-20T10:28:50;5.70;;;4.57;;
17606;SDS011;69222;52.242;20.980;2023-12-20T10:31:27;6.90;;;5.50;;
17606;SDS011;69222;52.242;20.980;2023-12-20T10:33:56;6.50;;;5.40;;
17606;SDS011;69222;52.242;20.980;2023-12-20T10:36:27;8.73;;;5.47;;
17606;SDS011;69222;52.242;20.980;2023-12-20T10:38:56;7.70;;;5.63;;
17606;SDS011;69222;52.242;20.980;2023-12-20T10:41:25;6.57;;;5.33;;
17606;SDS011;69222;52.242;20.980;2023-12-20T10:43:56;9.50;;;5.50;;
17606;SDS011;69222;52.242;20.980;2023-12-20T10:46:27;6.43;;;5.73;;
17606;SDS011;69222;52.242;20.980;2023-12-20T10:48:56;5.93;;;5.30;;
17606;SDS011;69222;52.242;20.980;2023-12-20T10:51:25;5.47;;;4.53;;
17606;SDS011;69222;52.242;20.980;2023-12-20T10:53:56;6.50;;;5.47;;
17606;SDS011;69222;52.242;20.980;2023-12-20T10:56:24;5.43;;;4.93;;
17606;SDS011;69222;52.242;20.980;2023-12-20T10:58:58;5.73;;;5.00;;
17606;SDS011;69222;52.242;20.980;2023-12-20T11:01:31;6.20;;;5.27;;
17606;SDS011;69222;52.242;20.980;2023-12-20T11:04:01;6.43;;;4.67;;
17606;SDS011;69222;52.242;20.980;2023-12-20T11:06:38;5.97;;;5.30;;
17606;SDS011;69222;52.242;20.980;2023-12-20T11:09:14;8.07;;;4.70;;
17606;SDS011;69222;52.242;20.980;2023-12-20T11:11:55;5.33;;;4.70;;
17606;SDS011;69222;52.242;20.980;2023-12-20T11:14:31;7.60;;;5.03;;
17606;SDS011;69222;52.242;20.980;2023-12-20T11:17:06;5.10;;;4.53;;
17606;SDS011;69222;52.242;20.980;2023-12-20T11:19:36;5.43;;;4.83;;
17606;SDS011;69222;52.242;20.980;2023-12-20T11:22:07;5.20;;;4.70;;
17606;SDS011;69222;52.242;20.980;2023-12-20T11:24:38;5.43;;;4.93;;
17606;SDS011;69222;52.242;20.980;2023-12-20T11:27:12;6.13;;;4.87;;
17606;SDS011;69222;52.242;20.980;2023-12-20T11:29:41;6.33;;;5.10;;
17606;SDS011;69222;52.242;20.980;2023-12-20T11:34:57;5.77;;;5.03;;
17606;SDS011;69222;52.242;20.980;2023-12-20T11:37:31;5.63;;;4.80;;
17606;SDS011;69222;52.242;20.980;2023-12-20T11:40:03;6.27;;;4.73;;
17606;SDS011;69222;52.242;20.980;2023-12-20T11:42:35;7.17;;;4.50;;
17606;SDS011;69222;52.242;20.980;2023-12-20T11:45:05;5.73;;;4.60;;
17606;SDS011;69222;52.242;20.980;2023-12-20T11:47:36;4.60;;;4.10;;
17606;SDS011;69222;52.242;20.980;2023-12-20T11:50:04;5.50;;;4.20;;
17606;SDS011;69222;52.242;20.980;2023-12-20T11:52:35;5.57;;;4.93;;
17606;SDS011;69222;52.242;20.980;2023-12-20T11:55:03;5.50;;;5.00;;
17606;SDS011;69222;52.242;20.980;2023-12-20T11:57:32;5.97;;;5.03;;
17606;SDS011;69222;52.242;20.980;2023-12-20T12:00:00;6.27;;;4.97;;
17606;SDS011;69222;52.242;20.980;2023-12-20T12:02:29;6.10;;;5.00;;
17606;SDS011;69222;52.242;20.980;2023-12-20T12:04:57;6.43;;;5.50;;
17606;SDS011;69222;52.242;20.980;2023-12-20T12:07:26;6.87;;;5.10;;
17606;SDS011;69222;52.242;20.980;2023-12-20T12:09:56;7.63;;;5.40;;
17606;SDS011;69222;52.242;20.980;2023-12-20T12:12:24;7.07;;;5.70;;
17606;SDS011;69222;52.242;20.980;2023-12-20T12:14:54;6.33;;;5.47;;
17606;SDS011;69222;52.242;20.980;2023-12-20T12:17:23;7.20;;;6.00;;
17606;SDS011;69222;52.242;20.980;2023-12-20T12:19:51;7.10;;;5.53;;
17606;SDS011;69222;52.242;20.980;2023-12-20T12:22:31;7.27;;;5.97;;
17606;SDS011;69222;52.242;20.980;2023-12-20T12:25:09;7.83;;;6.33;;
17606;SDS011;69222;52.242;20.980;2023-12-20T12:27:39;7.83;;;6.00;;
17606;SDS011;69222;52.242;20.980;2023-12-20T12:30:09;8.10;;;5.90;;
17606;SDS011;69222;52.242;20.980;2023-12-20T12:32:39;8.47;;;6.23;;
17606;SDS011;69222;52.242;20.980;2023-12-20T12:35:08;6.23;;;5.50;;
17606;SDS011;69222;52.242;20.980;2023-12-20T12:37:37;6.60;;;5.53;;
17606;SDS011;69222;52.242;20.980;2023-12-20T12:40:09;6.80;;;5.70;;
17606;SDS011;69222;52.242;20.980;2023-12-20T12:42:37;6.17;;;5.43;;
17606;SDS011;69222;52.242;20.980;2023-12-20T12:45:06;7.03;;;5.43;;
17606;SDS011;69222;52.242;20.980;2023-12-20T12:47:34;6.23;;;5.57;;
17606;SDS011;69222;52.242;20.980;2023-12-20T12:50:03;9.10;;;6.10;;
17606;SDS011;69222;52.242;20.980;2023-12-20T12:52:32;7.80;;;6.10;;
17606;SDS011;69222;52.242;20.980;2023-12-20T12:55:00;9.00;;;6.27;;
17606;SDS011;69222;52.242;20.980;2023-12-20T12:57:29;7.53;;;6.47;;
17606;SDS011;69222;52.242;20.980;2023-12-20T12:59:58;6.90;;;5.90;;
17606;SDS011;69222;52.242;20.980;2023-12-20T13:02:26;8.53;;;6.50;;
17606;SDS011;69222;52.242;20.980;2023-12-20T13:04:54;9.63;;;6.13;;
17606;SDS011;69222;52.242;20.980;2023-12-20T13:07:22;7.60;;;6.40;;
17606;SDS011;69222;52.242;20.980;2023-12-20T13:09:50;9.43;;;7.07;;
17606;SDS011;69222;52.242;20.980;2023-12-20T13:12:18;9.90;;;7.57;;
17606;SDS011;69222;52.242;20.980;2023-12-20T13:14:49;10.47;;;7.53;;
17606;SDS011;69222;52.242;20.980;2023-12-20T13:17:17;11.87;;;7.53;;
17606;SDS011;69222;52.242;20.980;2023-12-20T13:19:45;9.33;;;6.60;;
17606;SDS011;69222;52.242;20.980;2023-12-20T13:22:13;10.20;;;7.50;;
17606;SDS011;69222;52.242;20.980;2023-12-20T13:24:41;10.13;;;7.70;;
17606;SDS011;69222;52.242;20.980;2023-12-20T13:27:10;8.00;;;6.90;;
17606;SDS011;69222;52.242;20.980;2023-12-20T13:29:38;9.80;;;6.50;;
17606;SDS011;69222;52.242;20.980;2023-12-20T13:32:08;8.93;;;6.87;;
17606;SDS011;69222;52.242;20.980;2023-12-20T13:34:36;8.83;;;6.20;;
17606;SDS011;69222;52.242;20.980;2023-12-20T13:37:05;8.97;;;6.63;;
17606;SDS011;69222;52.242;20.980;2023-12-20T13:39:32;7.73;;;6.33;;
17606;SDS011;69222;52.242;20.980;2023-12-20T13:42:00;8.30;;;6.00;;
17606;SDS011;69222;52.242;20.980;2023-12-20T13:44:28;7.53;;;5.70;;
17606;SDS011;69222;52.242;20.980;2023-12-20T13:46:57;8.93;;;6.83;;
17606;SDS011;69222;52.242;20.980;2023-12-20T13:49:26;7.23;;;6.13;;
17606;SDS011;69222;52.242;20.980;2023-12-20T13:51:54;10.07;;;6.13;;
17606;SDS011;69222;52.242;20.980;2023-12-20T13:54:24;9.53;;;6.70;;
17606;SDS011;69222;52.242;20.980;2023-12-20T13:56:52;8.90;;;6.97;;
17606;SDS011;69222;52.242;20.980;2023-12-20T13:59:37;8.17;;;5.60;;
17606;SDS011;69222;52.242;20.980;2023-12-20T14:02:06;7.50;;;5.73;;
17606;SDS011;69222;52.242;20.980;2023-12-20T14:04:37;7.10;;;5.60;;
17606;SDS011;69222;52.242;20.980;2023-12-20T14:07:09;8.73;;;6.27;;
17606;SDS011;69222;52.242;20.980;2023-12-20T14:09:39;9.23;;;5.53;;
17606;SDS011;69222;52.242;20.980;2023-12-20T14:12:12;6.57;;;5.00;;
17606;SDS011;69222;52.242;20.980;2023-12-20T14:14:41;6.57;;;5.53;;
17606;SDS011;69222;52.242;20.980;2023-12-20T14:17:11;7.97;;;5.80;;
17606;SDS011;69222;52.242;20.980;2023-12-20T14:19:40;8.67;;;5.77;;
17606;SDS011;69222;52.242;20.980;2023-12-20T14:22:08;6.17;;;4.90;;
17606;SDS011;69222;52.242;20.980;2023-12-20T14:24:36;6.40;;;5.07;;
17606;SDS011;69222;52.242;20.980;2023-12-20T14:27:04;5.57;;;4.87;;
17606;SDS011;69222;52.242;20.980;2023-12-20T14:29:33;5.83;;;5.20;;
17606;SDS011;69222;52.242;20.980;2023-12-20T14:32:01;7.37;;;5.27;;
17606;SDS011;69222;52.242;20.980;2023-12-20T14:34:29;6.87;;;5.17;;
17606;SDS011;69222;52.242;20.980;2023-12-20T14:36:59;5.60;;;4.30;;
17606;SDS011;69222;52.242;20.980;2023-12-20T14:39:27;5.63;;;4.60;;
17606;SDS011;69222;52.242;20.980;2023-12-20T14:41:55;5.77;;;4.43;;
17606;SDS011;69222;52.242;20.980;2023-12-20T14:44:23;6.17;;;4.00;;